Cedar Rapids, IA

4:15 AM CDT on May 22, 2015 (GMT -0500)
Iowa City Municipal | | Change Station
CLOSE
Current Station
Airport
Location: Iowa City,
Elevation: 666 ft
Nearby Weather Stations

Elev 666 ft 41.63 °N, 91.54 °W | Updated 23 minutes ago

Clear
Clear
50 °F
Feels Like 50 °F
N
0
Wind Variable Wind from North

Today
High -- | Low -- °F
--% Chance of Precip.
Yesterday
High -- | Low -- °F
Precip. -- in
5:40 AM 8:26 PM
Waxing Crescent, 20% visible
Pressure 30.14 in
Visibility 10.0 miles
Clouds Clear
Dew Point 37 °F
Humidity 61%
Rainfall 0.00 in
Snow Depth Not available.
UV 0 out of 12
Pollen 9.00 out of 12
Air Quality Not available.
Flu Activity Sporadic
METAR KIOW 220852Z AUTO 00000KT 10SM CLR 10/03 A3014 RMK AO2 SLP204 T01000028 53012

More Conditions Fewer Conditions

Pressure 30.14 in
Visibility 10.0 miles
Clouds Clear
Dew Point 37 °F
Humidity 61%
Rainfall 0.00 in
Snow Depth Not available.
UV 0 out of 12
Pollen 9.00 out of 12
Air Quality Not available.
Flu Activity Sporadic
METAR KIOW 220852Z AUTO 00000KT 10SM CLR 10/03 A3014 RMK AO2 SLP204 T01000028 53012

More Conditions Fewer Conditions

10-Day Weather Forecast

Almanac

Astronomy

May. 22, 2015 Rise Set
Actual Time
Civil Twilight
Nautical Twilight
Astronomical Twilight
Moon
Length of Visible Light
Length of Day
Tomorrow will be .
, % of the Moon is Illuminated

Today's Extremes

State Highs State Lows

Community

WunderPhotos

Upload Photos

1,823,195 photos uploaded!

WunderBlogs® & News

Nearby

Air Quality

  Air Quality AQ Index Pollutant
Not available.

Snow Depth

Station Depth Elevation

Earthquake Activity

City Distance Mag. Time & Date
Minimum magnitude displayed is 2.5.

Coastal Water Temperatures

Place Temperature

Stations

Nearby Weather Stations

Station Location Temp. Windchill Dew Point Humidity Wind Precip. Elev Updated Type